NEODyS-2

Near Earth Objects - Dynamic Site
NEODyS ∴ Observatories ∴ Site 691 ∴ Obs & residuals
Contact »
691  ▹ 
OBSERVATIONS AND RESIDUALS

691-Steward Observatory, Kitt Peak-Spacewatch

Detections | Residuals | Detections & Residuals

[1-200] [201-400] [401-600] [601-800] [801-1000] [1001-1200] [1201-1400] [1401-1600] [1601-1800] [1801-2000] [2001-2200] [2201-2400] [2401-2600] [2601-2800] [2801-3000] [3001-3200] [3201-3400] [3401-3600] [3601-3800] [3801-4000] [4001-4200] [4201-4400] [4401-4600] [4601-4800] [4801-5000] [5001-5200] [5201-5400] [5401-5600] [5601-5800] [5801-6000] [6001-6200] [6201-6400] [6401-6600] [6601-6800] [6801-7000] [7001-7200] [7201-7400] [7401-7600] [7601-7800] [7801-8000] [8001-8200] [8201-8400] [8401-8600] [8601-8800] [8801-9000] [9001-9200] [9201-9400] [9401-9600] [9601-9800] [9801-10000] [10001-10200] [10201-10400] [10401-10600] [10601-10800] [10801-11000] [11001-11200] [11201-11400] [11401-11600] [11601-11800] [11801-12000] [12001-12200] [12201-12400] [12401-12600] [12601-12800] [12801-13000] [13001-13200] [13201-13400] [13401-13600] [13601-13800] [13801-14000] [14001-14200] [14201-14400] [14401-14600] [14601-14800] [14801-15000] [15001-15200] [15201-15400] [15401-15600] [15601-15800] [15801-16000] [16001-16200] [16201-16400] [16401-16600] [16601-16800] [16801-17000] [17001-17200] [17201-17400] [17401-17600] [17601-17800] [17801-18000] [18001-18200] [18201-18400] [18401-18600] [18601-18800] [18801-19000] [19001-19200] [19201-19400] [19401-19600] [19601-19800] [19801-20000] [20001-20200] [20201-20400] [20401-20600] [20601-20800] [20801-21000] [21001-21200] [21201-21400] [21401-21600] [21601-21800] [21801-22000] [22001-22200] [22201-22400] [22401-22600] [22601-22800] [22801-23000] [23001-23200] [23201-23400] [23401-23600] [23601-23800] [23801-24000] [24001-24200] [24201-24400] [24401-24600] [24601-24800] [24801-25000] [25001-25200] [25201-25400] [25401-25600] [25601-25800] [25801-26000] [26001-26200] [26201-26400] [26401-26600] [26601-26800] [26801-27000] [27001-27200] [27201-27400] [27401-27600] [27601-27800] [27801-28000] [28001-28200] [28201-28400] [28401-28600] [28601-28800] [28801-29000] [29001-29200] [29201-29400] [29401-29600] [29601-29800] [29801-30000] [30001-30200] [30201-30400] [30401-30600] [30601-30800] [30801-31000] [31001-31200] [31201-31400] [31401-31600] [31601-31800] [31801-32000] [32001-32200] [32201-32400] [32401-32600] [32601-32800] [32801-33000] [33001-33200] [33201-33400] [33401-33600] [33601-33800] [33801-34000] [34001-34200] [34201-34400] [34401-34600] [34601-34800] [34801-35000] [35001-35200] [35201-35400] [35401-35600] [35601-35800] [35801-36000] [36001-36200] [36201-36400] [36401-36600] [36601-36800] [36801-37000] [37001-37200] [37201-37400] [37401-37600] [37601-37800] [37801-38000] [38001-38200] [38201-38400] [38401-38600] [38601-38800] [38801-39000] [39001-39200] [39201-39400] [39401-39600] [39601-39800] [39801-40000] [40001-40200] [40201-40400] [40401-40600] [40601-40800] [40801-41000] [41001-41200] [41201-41400] [41401-41600] [41601-41800] [41801-42000] [42001-42200] [42201-42400] [42401-42600] [42601-42800] [42801-43000] [43001-43200] [43201-43400] [43401-43600] [43601-43800] [43801-44000] [44001-44200] [44201-44400] [44401-44600] [44601-44800] [44801-45000] [45001-45200] [45201-45400] [45401-45600] [45601-45800] [45801-46000] [46001-46200] [46201-46400] [46401-46600] [46601-46800] [46801-47000] [47001-47200] [47201-47400] [47401-47600] [47601-47800] [47801-48000] [48001-48200] [48201-48400] [48401-48600] [48601-48800] [48801-49000] [49001-49200] [49201-49400] [49401-49600] [49601-49800] [49801-50000] [50001-50200] [50201-50388]

Designation T Tech N Date Right Ascension Declination Apparent Magnitude Star Catalog Site code χ Used A Used M
yr-mo-day precision hr:min:sec precision rms F bias residual deg min sec precision rms F bias residual mag/col rms residual
2016XD1 O C H 2017-02-24.18910 1.000E-05 05:23:16.120 1.500E-01 0.500 F -0.086 0.032 +11° 21' 10.30" 1.000E-01 0.500 F 0.243 -0.130 20.1 R 0.70 0.17 o 691 0.27 Yes Yes
2015FJ36 O C H 2017-02-24.19182 1.000E-05 06:00:24.340 1.500E-01 0.500 F -0.196 1.599 +08° 42' 47.70" 1.000E-01 0.500 F 0.005 0.554 o 691 3.35 No No
2014DP7 O C K 2017-02-24.19396 1.000E-05 05:10:34.130 1.500E-01 0.500 F 0.010 0.215 +00° 15' 30.70" 1.000E-01 0.500 F 0.143 -0.261 o 691 0.71 Yes No
2016XD1 O C H 2017-02-24.20101 1.000E-05 05:23:17.810 1.500E-01 0.500 F -0.086 -0.015 +11° 20' 57.30" 1.000E-01 0.500 F 0.243 -0.389 20.1 R 0.70 0.17 o 691 0.78 Yes Yes
2015FJ36 O C H 2017-02-24.20373 1.000E-05 06:00:28.410 1.500E-01 0.500 F -0.196 -0.761 +08° 42' 50.60" 1.000E-01 0.500 F 0.005 -0.035 o 691 1.54 Yes No
2014DP7 O C K 2017-02-24.20587 1.000E-05 05:10:37.010 1.500E-01 0.500 F 0.010 0.081 +00° 16' 07.40" 1.000E-01 0.500 F 0.143 -0.205 21.2 R 0.70 0.07 o 691 0.47 Yes Yes
2016XD1 O C H 2017-02-24.21294 1.000E-05 05:23:19.490 1.500E-01 0.500 F -0.086 -0.295 +11° 20' 44.80" 1.000E-01 0.500 F 0.243 -0.116 20.0 R 0.70 0.07 o 691 0.64 Yes Yes
2015FJ36 O C H 2017-02-24.21565 1.000E-05 06:00:32.700 1.500E-01 0.500 F -0.196 0.027 +08° 42' 54.40" 1.000E-01 0.500 F 0.005 0.307 20.7 R 0.70 0.29 o 691 0.62 Yes Yes
2017BL6 O C H 2017-02-24.21848 1.000E-05 06:02:13.850 1.500E-01 0.500 F -0.155 -0.058 -04° 46' 51.40" 1.000E-01 0.500 F -0.096 0.010 20.3 R 0.70 -0.13 o 691 0.12 Yes Yes
2017BL6 O C H 2017-02-24.24000 1.000E-05 06:02:14.040 1.500E-01 0.500 F -0.155 0.443 -04° 47' 02.70" 1.000E-01 0.500 F -0.096 -0.001 o 691 0.89 Yes No
2017BL6 O C H 2017-02-24.26155 1.000E-05 06:02:14.200 1.500E-01 0.500 F -0.155 0.177 -04° 47' 13.90" 1.000E-01 0.500 F -0.096 0.066 20.2 R 0.70 -0.23 o 691 0.38 Yes Yes
2017BM31 O C H 2017-02-24.29465 1.000E-05 06:46:33.540 1.500E-01 0.500 F -0.022 0.136 +24° 13' 43.10" 1.000E-01 0.500 F 0.151 0.129 21.3 R 0.70 0.13 o 691 0.38 Yes Yes
2017BM31 O C H 2017-02-24.30944 1.000E-05 06:46:32.390 1.500E-01 0.500 F -0.022 0.374 +24° 13' 53.10" 1.000E-01 0.500 F 0.151 0.087 22.0 R 0.70 0.83 o 691 0.77 Yes Yes
2017BM31 O C H 2017-02-24.32423 1.000E-05 06:46:31.250 1.500E-01 0.500 F -0.022 0.641 +24° 14' 03.00" 1.000E-01 0.500 F 0.151 -0.022 o 691 1.29 Yes No
2004AY1 O C K 2017-02-24.33182 1.000E-05 10:05:18.350 1.500E-01 0.500 F 0.212 0.099 +26° 27' 53.00" 1.000E-01 0.500 F 0.248 -0.036 20.2 R 0.70 -0.92 o 691 0.22 Yes Yes
2004AY1 O C K 2017-02-24.34830 1.000E-05 10:05:16.430 1.500E-01 0.500 F 0.189 -0.155 +26° 27' 49.70" 1.000E-01 0.500 F 0.346 0.145 20.4 R 0.70 -0.72 o 691 0.46 Yes Yes
2004AY1 O C K 2017-02-24.36473 1.000E-05 10:05:14.500 1.500E-01 0.500 F 0.189 -0.700 +26° 27' 45.70" 1.000E-01 0.500 F 0.346 -0.224 20.0 R 0.70 -1.13 o 691 1.48 Yes Yes
2017DR36 O C H 2017-02-24.38305 1.000E-05 11:49:04.770 1.500E-01 0.500 F 0.139 0.187 +23° 20' 34.40" 1.000E-01 0.500 F 0.243 0.491 20.9 R 0.70 0.34 o 691 1.07 Yes Yes
2017DR36 O C H 2017-02-24.39382 1.000E-05 11:49:02.970 1.500E-01 0.500 F 0.139 0.030 +23° 20' 38.00" 1.000E-01 0.500 F 0.243 -0.068 o 691 0.15 Yes No
2017DR36 O C H 2017-02-24.40461 1.000E-05 11:49:01.210 1.500E-01 0.500 F 0.139 0.464 +23° 20' 42.00" 1.000E-01 0.500 F 0.243 -0.213 o 691 1.03 Yes No
2017CO1 O C K 2017-02-24.42366 1.000E-05 11:08:57.890 1.500E-01 0.500 F 0.115 0.676 +00° 06' 04.40" 1.000E-01 0.500 F 0.213 -0.186 20.9 R 0.70 0.02 o 691 1.53 Yes Yes
2017DY35 O C K 2017-02-24.42810 1.000E-05 11:30:26.430 1.500E-01 0.500 F 0.205 0.143 +07° 00' 56.70" 1.000E-01 0.500 F 0.207 -0.355 21.0 R 0.70 0.19 o 691 0.82 Yes Yes
2017DY35 O C K 2017-02-24.43201 1.000E-05 11:30:25.200 1.500E-01 0.500 F 0.205 -2.294 +07° 00' 42.60" 1.000E-01 0.500 F 0.207 -0.075 20.0 R 0.70 -0.81 o 691 4.32 No Yes
2017CO1 O C K 2017-02-24.44293 1.000E-05 11:08:52.950 1.500E-01 0.500 F 0.115 -1.171 +00° 06' 38.00" 1.000E-01 0.500 F 0.213 -0.254 o 691 2.63 Yes No
2017DY35 O C K 2017-02-24.44934 1.000E-05 11:30:20.670 1.500E-01 0.500 F 0.205 0.347 +06° 59' 39.60" 1.000E-01 0.500 F 0.207 0.645 20.4 R 0.70 -0.41 o 691 1.63 Yes Yes
2017CO1 O C K 2017-02-24.46222 1.000E-05 11:08:48.250 1.500E-01 0.500 F 0.105 0.329 +00° 07' 11.80" 1.000E-01 0.500 F 0.151 -0.077 21.1 R 0.70 0.22 o 691 0.74 Yes Yes
2009EM1 O C 2017-02-24.47817 1.000E-05 12:10:39.380 1.500E-01 0.500 F 0.085 -0.779 +26° 16' 45.70" 1.000E-01 0.500 F 0.240 -0.155 20.4 V 0.70 0.08 o 691 1.61 Yes Yes
2012DR32 O C 2017-02-24.48435 1.000E-05 12:23:16.000 1.500E-01 0.500 F 0.188 -0.387 +21° 40' 55.40" 1.000E-01 0.500 F 0.271 0.014 20.2 V 0.70 0.11 o 691 0.78 Yes Yes
2009EM1 O C 2017-02-24.48619 1.000E-05 12:10:39.190 1.500E-01 0.500 F 0.085 -0.864 +26° 15' 47.00" 1.000E-01 0.500 F 0.240 0.031 20.2 V 0.70 -0.12 o 691 1.75 Yes Yes
2012DR32 O C 2017-02-24.49228 1.000E-05 12:23:12.180 1.500E-01 0.500 F 0.188 -0.415 +21° 40' 58.00" 1.000E-01 0.500 F 0.271 0.030 20.0 V 0.70 -0.08 o 691 0.84 Yes Yes
2009EM1 O C 2017-02-24.49411 1.000E-05 12:10:39.040 1.500E-01 0.500 F 0.085 -0.508 +26° 14' 49.30" 1.000E-01 0.500 F 0.240 0.555 20.5 V 0.70 0.18 o 691 1.53 Yes Yes
2012DR32 O C 2017-02-24.50014 1.000E-05 12:23:08.400 1.500E-01 0.500 F 0.188 -0.390 +21° 41' 00.60" 1.000E-01 0.500 F 0.271 0.161 20.3 V 0.70 0.22 o 691 0.85 Yes Yes
2017DS36 O C 2017-02-24.50584 1.000E-05 14:46:39.610 1.500E-01 0.500 F 0.056 -0.279 -01° 30' 03.70" 1.000E-01 0.500 F 0.154 0.069 19.7 V 0.70 0.00 o 691 0.58 Yes Yes
2010DP O C H 2017-02-24.50809 1.000E-05 14:42:10.780 1.500E-01 0.500 F 0.191 -0.108 -06° 14' 40.40" 1.000E-01 0.500 F 0.015 0.016 19.8 R 0.70 0.26 o 691 0.22 Yes Yes
2004BV1 O C K 2017-02-24.51136 1.000E-05 14:44:01.270 1.500E-01 0.500 F 0.311 -0.366 +06° 02' 37.40" 1.000E-01 0.500 F 0.533 -0.054 21.0 R 0.70 -0.34 o 691 0.74 Yes Yes
2017DS36 O C 2017-02-24.51769 1.000E-05 14:46:37.750 1.500E-01 0.500 F 0.056 -0.025 -01° 31' 17.60" 1.000E-01 0.500 F 0.154 -0.230 20.2 V 0.70 0.50 o 691 0.47 Yes Yes
2010DP O C H 2017-02-24.51995 1.000E-05 14:42:11.250 1.500E-01 0.500 F 0.191 0.420 -06° 14' 03.70" 1.000E-01 0.500 F 0.015 0.068 19.5 R 0.70 -0.04 o 691 0.86 Yes Yes
2004BV1 O C K 2017-02-24.52315 1.000E-05 14:44:01.990 1.500E-01 0.500 F 0.311 0.113 +06° 02' 43.80" 1.000E-01 0.500 F 0.533 0.319 20.9 R 0.70 -0.44 o 691 0.68 Yes Yes
2017DS36 O C 2017-02-24.52948 1.000E-05 14:46:35.970 1.500E-01 0.500 F 0.056 1.270 -01° 32' 30.30" 1.000E-01 0.500 F 0.154 0.291 19.4 V 0.70 -0.30 o 691 2.62 Yes Yes
2010DP O C H 2017-02-24.53173 1.000E-05 14:42:11.660 1.500E-01 0.500 F 0.191 0.094 -06° 13' 27.30" 1.000E-01 0.500 F 0.015 0.053 19.5 R 0.70 -0.04 o 691 0.22 Yes Yes
2004BV1 O C K 2017-02-24.53493 1.000E-05 14:44:02.720 1.500E-01 0.500 F 0.311 0.746 +06° 02' 49.20" 1.000E-01 0.500 F 0.533 -0.301 21.2 R 0.70 -0.14 o 691 1.61 Yes Yes
2009UN3 O C H 2017-02-25.10978 1.000E-05 03:21:31.010 1.500E-01 0.500 F -0.182 -0.453 -05° 31' 17.80" 1.000E-01 0.500 F 0.038 -0.620 19.5 R 0.70 -0.02 o 691 1.54 Yes Yes
2009UN3 O C H 2017-02-25.12093 1.000E-05 03:21:33.250 1.500E-01 0.500 F -0.182 -0.074 -05° 30' 24.50" 1.000E-01 0.500 F 0.038 -0.172 19.4 R 0.70 -0.12 o 691 0.38 Yes Yes
2009UN3 O C H 2017-02-25.13207 1.000E-05 03:21:35.480 1.500E-01 0.500 F -0.182 0.146 -05° 29' 31.50" 1.000E-01 0.500 F 0.038 0.010 19.5 R 0.70 -0.02 o 691 0.29 Yes Yes
2017BL31 O C K 2017-02-25.14733 1.000E-05 04:05:54.770 1.500E-01 0.500 F -0.116 -0.118 +22° 25' 35.90" 1.000E-01 0.500 F 0.209 0.123 21.6 R 0.70 0.19 o 691 0.35 Yes Yes
2016AU8 O C H 2017-02-25.15445 1.000E-05 04:47:44.790 1.500E-01 0.500 F -0.233 -0.005 +19° 47' 14.40" 1.000E-01 0.500 F 0.166 -0.375 20.6 R 0.70 0.17 o 691 0.75 Yes Yes
1990BG O C 2017-02-25.15445 1.000E-05 04:49:50.200 1.500E-01 0.500 F -0.223 -0.275 +19° 02' 07.10" 1.000E-01 0.500 F 0.222 0.028 18.5 V 0.70 0.34 o 691 0.55 Yes Yes
2017BL31 O C K 2017-02-25.16089 1.000E-05 04:05:54.200 1.500E-01 0.500 F -0.116 -0.480 +22° 25' 43.90" 1.000E-01 0.500 F 0.209 0.338 21.7 R 0.70 0.29 o 691 1.20 Yes Yes
2016AU8 O C H 2017-02-25.16801 1.000E-05 04:47:47.060 1.500E-01 0.500 F -0.233 -0.882 +19° 47' 07.90" 1.000E-01 0.500 F 0.166 0.001 21.3 R 0.70 0.86 o 691 1.77 Yes Yes
1990BG O C 2017-02-25.16801 1.000E-05 04:49:50.180 1.500E-01 0.500 F -0.223 -0.327 +19° 02' 20.00" 1.000E-01 0.500 F 0.222 -0.287 18.6 V 0.70 0.44 o 691 0.87 Yes Yes
2017BL31 O C K 2017-02-25.17444 1.000E-05 04:05:53.680 1.500E-01 0.500 F -0.116 -0.192 +22° 25' 51.10" 1.000E-01 0.500 F 0.209 -0.228 21.6 R 0.70 0.19 o 691 0.60 Yes Yes
2016AU8 O C H 2017-02-25.18156 1.000E-05 04:47:49.510 1.500E-01 0.500 F -0.233 0.753 +19° 47' 01.10" 1.000E-01 0.500 F 0.166 0.101 20.7 R 0.70 0.26 o 691 1.52 Yes Yes
1990BG O C 2017-02-25.18156 1.000E-05 04:49:50.180 1.500E-01 0.500 F -0.223 -0.124 +19° 02' 33.40" 1.000E-01 0.500 F 0.222 -0.079 18.9 V 0.70 0.74 o 691 0.29 Yes Yes
2017DT35 O C K 2017-02-25.19107 1.000E-05 05:21:24.120 1.500E-01 0.500 F -0.211 -0.376 -14° 35' 33.00" 1.000E-01 0.500 F 0.037 -1.158 20.9 R 0.70 0.48 o 691 2.47 Yes Yes
2017DT35 O C K 2017-02-25.20051 1.000E-05 05:21:29.620 1.500E-01 0.500 F -0.211 1.260 -14° 35' 02.10" 1.000E-01 0.500 F 0.037 -0.517 o 691 2.76 Yes No
2017DT35 O C K 2017-02-25.20996 1.000E-05 05:21:34.810 1.500E-01 0.500 F -0.211 -1.707 -14° 34' 31.80" 1.000E-01 0.500 F 0.037 -0.523 20.4 R 0.70 -0.02 o 691 3.52 No Yes
2017BL6 O C H 2017-02-25.21506 1.000E-05 06:02:31.850 1.500E-01 0.500 F -0.155 0.245 -04° 55' 33.60" 1.000E-01 0.500 F -0.096 -0.095 21.6 R 0.70 1.15 o 691 0.53 Yes Yes
2017BL30 O C H 2017-02-25.21768 1.000E-05 06:39:32.810 1.500E-01 0.500 F -0.074 0.008 +07° 44' 26.60" 1.000E-01 0.500 F 0.104 -0.100 o 691 0.20 Yes No
2017BL6 O C H 2017-02-25.22722 1.000E-05 06:02:31.970 1.500E-01 0.500 F -0.155 -0.011 -04° 55' 39.70" 1.000E-01 0.500 F -0.096 -0.008 20.3 R 0.70 -0.15 o 691 0.03 Yes Yes
2017BL30 O C H 2017-02-25.22983 1.000E-05 06:39:26.080 1.500E-01 0.500 F -0.074 0.167 +07° 43' 52.30" 1.000E-01 0.500 F 0.104 0.149 o 691 0.45 Yes No
2017BL6 O C H 2017-02-25.23938 1.000E-05 06:02:32.110 1.500E-01 0.500 F -0.155 -0.061 -04° 55' 45.60" 1.000E-01 0.500 F -0.096 0.265 20.1 R 0.70 -0.35 o 691 0.55 Yes Yes
2017BG32 O C H 2017-02-25.25154 1.000E-05 06:25:16.330 1.500E-01 0.500 F -0.207 0.748 -08° 18' 13.00" 1.000E-01 0.500 F 0.109 0.426 20.9 R 0.70 -0.16 o 691 1.74 Yes Yes
2017BL32 O C H 2017-02-25.25427 1.000E-05 06:36:27.830 1.500E-01 0.500 F -0.244 1.033 -06° 48' 22.90" 1.000E-01 0.500 F 0.094 -0.150 20.2 R 0.70 0.39 o 691 2.15 Yes Yes
2017BG32 O C H 2017-02-25.25701 1.000E-05 06:25:16.310 1.500E-01 0.500 F -0.207 0.044 -08° 18' 06.30" 1.000E-01 0.500 F 0.109 -0.286 o 691 0.58 Yes No
2017BL32 O C H 2017-02-25.25973 1.000E-05 06:36:25.380 1.500E-01 0.500 F -0.244 -0.299 -06° 48' 25.30" 1.000E-01 0.500 F 0.094 0.029 o 691 0.62 Yes No
2017BG32 O C H 2017-02-25.26246 1.000E-05 06:25:16.350 1.500E-01 0.500 F -0.207 0.226 -08° 17' 59.40" 1.000E-01 0.500 F 0.109 -0.772 20.9 R 0.70 -0.16 o 691 1.61 Yes Yes
2017BL32 O C H 2017-02-25.26519 1.000E-05 06:36:23.050 1.500E-01 0.500 F -0.244 0.139 -06° 48' 28.40" 1.000E-01 0.500 F 0.094 -0.497 o 691 1.05 Yes No
2010HZ108 O C H 2017-02-25.27430 1.000E-05 09:52:42.050 1.500E-01 0.500 F 0.123 0.079 -14° 32' 08.50" 1.000E-01 0.500 F -0.038 0.140 20.6 R 0.70 0.54 o 691 0.33 Yes Yes
1999LW1 O C H 2017-02-25.27734 1.000E-05 09:39:48.500 1.500E-01 0.500 F -0.009 -0.368 -00° 15' 22.20" 1.000E-01 0.500 F 0.219 0.121 21.3 R 0.70 0.62 o 691 0.78 Yes Yes
2010HZ108 O C H 2017-02-25.28402 1.000E-05 09:52:41.030 1.500E-01 0.500 F 0.123 0.224 -14° 31' 41.90" 1.000E-01 0.500 F -0.038 -0.423 20.0 R 0.70 -0.06 o 691 0.97 Yes Yes
1999LW1 O C H 2017-02-25.28704 1.000E-05 09:39:47.240 1.500E-01 0.500 F -0.009 -0.017 -00° 15' 07.50" 1.000E-01 0.500 F 0.219 0.550 21.4 R 0.70 0.72 o 691 1.11 Yes Yes
2010HZ108 O C H 2017-02-25.29372 1.000E-05 09:52:39.990 1.500E-01 0.500 F 0.123 0.052 -14° 31' 14.80" 1.000E-01 0.500 F -0.038 -0.459 21.0 R 0.70 0.94 o 691 0.94 Yes Yes
1999LW1 O C H 2017-02-25.29675 1.000E-05 09:39:45.950 1.500E-01 0.500 F -0.009 -0.106 -00° 14' 53.40" 1.000E-01 0.500 F 0.219 0.368 20.7 R 0.70 0.02 o 691 0.77 Yes Yes
2001DR8 O C 2017-02-25.30256 1.000E-05 09:52:21.890 1.500E-01 0.500 F 0.046 -0.408 +13° 47' 42.30" 1.000E-01 0.500 F 0.307 -0.527 20.7 V 0.70 0.10 o 691 1.34 Yes Yes
2017BX32 O C H 2017-02-25.30256 1.000E-05 09:49:57.870 1.500E-01 0.500 F 0.037 -0.112 +13° 03' 01.10" 1.000E-01 0.500 F 0.220 0.086 21.7 R 0.70 0.51 o 691 0.29 Yes Yes
2017DZ108 O C 2017-02-25.30728 1.000E-05 09:51:28.690 1.500E-01 0.500 F 0.071 -0.552 +21° 16' 14.20" 1.000E-01 0.500 F 0.264 0.041 20.0 V 0.70 -0.25 o 691 1.17 Yes Yes
2017BX32 O C H 2017-02-25.31217 1.000E-05 09:49:58.360 1.500E-01 0.500 F 0.037 -0.251 +13° 03' 13.20" 1.000E-01 0.500 F 0.220 0.309 21.9 R 0.70 0.71 o 691 0.83 Yes Yes
2001DR8 O C 2017-02-25.31217 1.000E-05 09:52:20.850 1.500E-01 0.500 F 0.046 -0.161 +13° 47' 45.30" 1.000E-01 0.500 F 0.307 -0.409 20.5 V 0.70 -0.10 o 691 0.88 Yes Yes
2017DZ108 O C 2017-02-25.31710 1.000E-05 09:51:32.720 1.500E-01 0.500 F 0.071 -0.198 +21° 14' 50.50" 1.000E-01 0.500 F 0.264 -0.216 20.1 V 0.70 -0.15 o 691 0.62 Yes Yes
2017BX32 O C H 2017-02-25.32212 1.000E-05 09:49:58.930 1.500E-01 0.500 F 0.037 0.498 +13° 03' 24.60" 1.000E-01 0.500 F 0.220 -0.556 o 691 1.55 Yes No
2001DR8 O C 2017-02-25.32212 1.000E-05 09:52:19.740 1.500E-01 0.500 F 0.046 -0.397 +13° 47' 48.40" 1.000E-01 0.500 F 0.307 -0.286 20.7 V 0.70 0.10 o 691 0.98 Yes Yes
2017DZ108 O C 2017-02-25.32710 1.000E-05 09:51:36.800 1.500E-01 0.500 F 0.071 -0.343 +21° 13' 25.30" 1.000E-01 0.500 F 0.264 -0.087 20.2 V 0.70 -0.05 o 691 0.75 Yes Yes
2013RD32 O C 2017-02-25.33657 1.000E-05 10:28:25.390 1.500E-01 0.500 F 0.187 -0.231 +04° 15' 01.00" 1.000E-01 0.500 F 0.099 0.274 21.4 V 0.70 0.66 o 691 0.76 Yes Yes
2013RD32 O C 2017-02-25.35617 1.000E-05 10:28:24.180 1.500E-01 0.500 F 0.187 0.488 +04° 15' 14.60" 1.000E-01 0.500 F 0.099 -0.364 21.1 V 0.70 0.36 o 691 1.30 Yes Yes
2013RD32 O C 2017-02-25.37579 1.000E-05 10:28:22.870 1.500E-01 0.500 F 0.187 -0.291 +04° 15' 29.30" 1.000E-01 0.500 F 0.099 0.086 20.7 V 0.70 -0.04 o 691 0.65 Yes Yes
2008EN6 O C H 2017-02-25.39996 1.000E-05 11:02:02.640 1.500E-01 0.500 F 0.158 0.623 +04° 20' 38.10" 1.000E-01 0.500 F 0.060 -0.240 21.5 R 0.70 0.53 o 691 1.36 Yes Yes
2017DB38 O C K 2017-02-25.40284 1.000E-05 10:50:41.870 1.500E-01 0.500 F 0.308 0.970 -00° 29' 41.00" 1.000E-01 0.500 F 0.155 0.319 20.4 R 0.70 -0.32 o 691 2.06 Yes Yes
2008EN6 O C H 2017-02-25.41200 1.000E-05 11:02:01.100 1.500E-01 0.500 F 0.158 0.678 +04° 20' 37.40" 1.000E-01 0.500 F 0.060 -0.200 21.9 R 0.70 0.93 o 691 1.44 Yes Yes
2017DB38 O C K 2017-02-25.41489 1.000E-05 10:50:38.510 1.500E-01 0.500 F 0.308 0.317 -00° 30' 05.80" 1.000E-01 0.500 F 0.155 -0.092 20.6 R 0.70 -0.12 o 691 0.67 Yes Yes
2008EN6 O C H 2017-02-25.42403 1.000E-05 11:01:59.540 1.500E-01 0.500 F 0.158 0.399 +04° 20' 36.90" 1.000E-01 0.500 F 0.060 0.043 21.1 R 0.70 0.13 o 691 0.81 Yes Yes
2017DB38 O C K 2017-02-25.42692 1.000E-05 10:50:35.190 1.500E-01 0.500 F 0.308 0.062 -00° 30' 30.70" 1.000E-01 0.500 F 0.155 -0.649 21.1 R 0.70 0.38 o 691 1.31 Yes Yes
2016QC84 O C 2017-02-25.43995 1.000E-05 12:26:27.060 1.500E-01 0.500 F 0.111 0.071 +12° 42' 52.00" 1.000E-01 0.500 F 0.275 0.027 19.2 V 0.70 0.03 o 691 0.15 Yes Yes
2017BE92 O C K 2017-02-25.44316 1.000E-05 11:49:37.640 1.500E-01 0.500 F 0.234 -0.083 -06° 06' 47.20" 1.000E-01 0.500 F 0.238 0.471 o 691 0.96 Yes No
2016QC84 O C 2017-02-25.45710 1.000E-05 12:26:22.660 1.500E-01 0.500 F 0.111 0.156 +12° 42' 23.80" 1.000E-01 0.500 F 0.275 0.160 19.2 V 0.70 0.03 o 691 0.45 Yes Yes
2017BE92 O C K 2017-02-25.46026 1.000E-05 11:49:34.510 1.500E-01 0.500 F 0.234 -0.070 -06° 07' 07.10" 1.000E-01 0.500 F 0.238 -0.064 21.0 R 0.70 -0.19 o 691 0.19 Yes Yes
2016QC84 O C 2017-02-25.47405 1.000E-05 12:26:18.300 1.500E-01 0.500 F 0.111 -0.031 +12° 41' 55.60" 1.000E-01 0.500 F 0.275 0.015 19.2 V 0.70 0.03 o 691 0.07 Yes Yes
2017BE92 O C K 2017-02-25.47721 1.000E-05 11:49:31.460 1.500E-01 0.500 F 0.234 0.674 -06° 07' 26.10" 1.000E-01 0.500 F 0.238 0.113 20.8 R 0.70 -0.39 o 691 1.37 Yes Yes
2016VV3 O C H 2017-02-25.49195 1.000E-05 13:40:53.570 1.500E-01 0.500 F 0.159 -0.234 +01° 26' 02.80" 1.000E-01 0.500 F 0.097 0.474 20.6 R 0.70 0.21 o 691 1.06 Yes Yes
2000EM26 O C K 2017-02-25.49504 1.000E-05 13:57:52.520 1.500E-01 0.500 F 0.258 -0.323 -11° 56' 04.90" 1.000E-01 0.500 F 0.128 0.697 o 691 1.55 Yes No
2017DX34 O C H 2017-02-25.49981 1.000E-05 13:42:09.600 1.500E-01 0.500 F 0.277 0.896 -03° 18' 13.50" 1.000E-01 0.500 F 0.111 1.450 21.1 R 0.70 0.93 o 691 3.32 No Yes
2016VV3 O C H 2017-02-25.50323 1.000E-05 13:40:53.160 1.500E-01 0.500 F 0.159 -0.015 +01° 26' 05.40" 1.000E-01 0.500 F 0.097 0.121 20.8 R 0.70 0.41 o 691 0.24 Yes Yes
2000EM26 O C K 2017-02-25.50617 1.000E-05 13:57:48.700 1.500E-01 0.500 F 0.258 -0.832 -11° 55' 56.50" 1.000E-01 0.500 F 0.128 -0.007 20.4 R 0.70 0.03 o 691 1.68 Yes Yes
2017DX34 O C H 2017-02-25.51091 1.000E-05 13:42:10.600 1.500E-01 0.500 F 0.277 0.308 -03° 17' 50.10" 1.000E-01 0.500 F 0.111 0.380 20.3 R 0.70 0.13 o 691 1.01 Yes Yes
2016VV3 O C H 2017-02-25.51432 1.000E-05 13:40:52.760 1.500E-01 0.500 F 0.159 0.233 +01° 26' 08.20" 1.000E-01 0.500 F 0.097 0.018 20.2 R 0.70 -0.19 o 691 0.47 Yes Yes
2000EM26 O C K 2017-02-25.51724 1.000E-05 13:57:44.910 1.500E-01 0.500 F 0.258 -1.231 -11° 55' 47.30" 1.000E-01 0.500 F 0.128 0.091 20.0 R 0.70 -0.37 o 691 2.50 Yes Yes
2017DX34 O C H 2017-02-25.52198 1.000E-05 13:42:11.730 1.500E-01 0.500 F 0.277 1.470 -03° 17' 24.30" 1.000E-01 0.500 F 0.111 1.767 o 691 4.47 No No
2016XM O C H 2017-02-25.53010 1.000E-05 17:39:41.020 1.500E-01 0.500 F 0.107 0.083 +08° 19' 46.60" 1.000E-01 0.500 F 0.139 -0.355 19.7 R 0.70 0.06 o 691 0.78 Yes Yes
2016XM O C H 2017-02-25.53719 1.000E-05 17:39:41.730 1.500E-01 0.500 F 0.107 -0.388 +08° 19' 12.00" 1.000E-01 0.500 F 0.139 -0.328 19.6 R 0.70 -0.04 o 691 1.04 Yes Yes
2016XM O C H 2017-02-25.54562 1.000E-05 17:39:42.570 1.500E-01 0.500 F 0.107 -0.974 +08° 18' 32.20" 1.000E-01 0.500 F 0.139 1.050 o 691 3.04 Yes No
2015XY378 O C K 2017-02-26.12686 1.000E-05 02:04:21.060 1.500E-01 0.500 F -0.160 0.595 +27° 29' 19.40" 1.000E-01 0.500 F 0.236 0.511 20.7 R 0.70 -0.79 o 691 1.60 Yes Yes
2015XY378 O C K 2017-02-26.14495 1.000E-05 02:04:24.420 1.500E-01 0.500 F -0.160 0.059 +27° 29' 28.70" 1.000E-01 0.500 F 0.236 -0.317 20.4 R 0.70 -1.09 o 691 0.66 Yes Yes
2015XY378 O C K 2017-02-26.16307 1.000E-05 02:04:27.860 1.500E-01 0.500 F -0.160 0.428 +27° 29' 39.10" 1.000E-01 0.500 F 0.236 -0.038 o 691 0.86 Yes No
2016XD1 O C H 2017-02-26.17508 1.000E-05 05:28:10.550 1.500E-01 0.500 F -0.113 -0.036 +10° 46' 37.60" 1.000E-01 0.500 F 0.201 0.162 20.3 R 0.70 0.33 o 691 0.33 Yes Yes
2017BL30 O C H 2017-02-26.17787 1.000E-05 06:31:13.360 1.500E-01 0.500 F -0.056 -0.115 +06° 58' 24.60" 1.000E-01 0.500 F 0.121 -0.202 19.8 R 0.70 0.51 o 691 0.47 Yes Yes
2015FJ36 O C H 2017-02-26.17970 1.000E-05 06:12:07.780 1.500E-01 0.500 F -0.112 -0.921 +08° 52' 00.70" 1.000E-01 0.500 F -0.001 0.877 o 691 2.57 Yes No
2016XD1 O C H 2017-02-26.18251 1.000E-05 05:28:11.620 1.500E-01 0.500 F -0.113 -0.086 +10° 46' 30.00" 1.000E-01 0.500 F 0.201 0.243 20.0 R 0.70 0.03 o 691 0.52 Yes Yes
2016XD1 O C H 2017-02-26.18987 1.000E-05 05:28:12.700 1.500E-01 0.500 F -0.113 0.147 +10° 46' 22.30" 1.000E-01 0.500 F 0.201 0.156 20.0 R 0.70 0.03 o 691 0.43 Yes Yes
2017BL30 O C H 2017-02-26.19258 1.000E-05 06:31:04.940 1.500E-01 0.500 F -0.056 -0.252 +06° 57' 41.00" 1.000E-01 0.500 F 0.121 -0.133 19.1 R 0.70 -0.19 o 691 0.57 Yes Yes
2015FJ36 O C H 2017-02-26.19441 1.000E-05 06:12:12.580 1.500E-01 0.500 F -0.112 -0.206 +08° 52' 03.30" 1.000E-01 0.500 F -0.001 -0.016 21.3 R 0.70 0.78 o 691 0.42 Yes Yes
2017DQ36 O C K 2017-02-27.10426 1.000E-05 05:06:41.060 1.500E-01 0.500 F -0.229 1.665 -14° 29' 40.30" 1.000E-01 0.500 F 0.189 0.152 o 691 3.19 No No
2017DQ36 O C K 2017-02-27.12040 1.000E-05 05:06:44.280 1.500E-01 0.500 F -0.229 -0.299 -14° 29' 30.00" 1.000E-01 0.500 F 0.189 1.595 o 691 3.21 No No
2017DQ36 O C K 2017-02-27.13658 1.000E-05 05:06:47.590 1.500E-01 0.500 F -0.229 -1.071 -14° 29' 23.30" 1.000E-01 0.500 F 0.189 -0.606 o 691 2.58 Yes No
2017BL6 O C H 2017-02-27.15326 1.000E-05 06:03:19.230 1.500E-01 0.500 F -0.155 -0.538 -05° 11' 45.10" 1.000E-01 0.500 F -0.096 0.175 21.2 R 0.70 0.72 o 691 1.13 Yes Yes
2016XD1 O C H 2017-02-27.15713 1.000E-05 05:30:37.910 1.500E-01 0.500 F -0.084 -1.155 +10° 29' 57.20" 1.000E-01 0.500 F 0.173 0.124 o 691 2.33 Yes No
2017DT35 O C K 2017-02-27.15998 1.000E-05 05:39:42.440 1.500E-01 0.500 F -0.018 0.587 -12° 51' 50.40" 1.000E-01 0.500 F 0.011 0.360 20.6 R 0.70 0.16 o 691 1.40 Yes Yes
2017BL6 O C H 2017-02-27.16421 1.000E-05 06:03:19.440 1.500E-01 0.500 F -0.155 -0.337 -05° 11' 50.60" 1.000E-01 0.500 F -0.096 -0.020 20.6 R 0.70 0.12 o 691 0.68 Yes Yes
2016XD1 O C H 2017-02-27.16805 1.000E-05 05:30:39.580 1.500E-01 0.500 F -0.084 0.048 +10° 29' 46.30" 1.000E-01 0.500 F 0.173 0.320 20.2 R 0.70 0.21 o 691 0.65 Yes Yes
2017DT35 O C K 2017-02-27.17083 1.000E-05 05:39:47.940 1.500E-01 0.500 F -0.018 -2.572 -12° 51' 18.00" 1.000E-01 0.500 F 0.011 -1.244 o 691 5.64 No No
2017BL6 O C H 2017-02-27.17506 1.000E-05 06:03:19.640 1.500E-01 0.500 F -0.155 -0.293 -05° 11' 56.30" 1.000E-01 0.500 F -0.096 -0.475 20.3 R 0.70 -0.18 o 691 1.12 Yes Yes
2016XD1 O C H 2017-02-27.17889 1.000E-05 05:30:41.130 1.500E-01 0.500 F -0.084 -0.374 +10° 29' 34.80" 1.000E-01 0.500 F 0.173 -0.158 20.2 R 0.70 0.21 o 691 0.81 Yes Yes
2017DT35 O C K 2017-02-27.18170 1.000E-05 05:39:53.720 1.500E-01 0.500 F -0.018 -1.793 -12° 50' 43.00" 1.000E-01 0.500 F 0.011 -0.326 o 691 3.60 No No
2017BG32 O C H 2017-02-27.18593 1.000E-05 06:25:35.490 1.500E-01 0.500 F -0.209 1.285 -07° 34' 43.20" 1.000E-01 0.500 F 0.048 -0.124 21.4 R 0.70 0.31 o 691 2.60 Yes Yes
2017BL30 O C H 2017-02-27.18854 1.000E-05 06:22:11.580 1.500E-01 0.500 F -0.033 0.126 +06° 07' 30.50" 1.000E-01 0.500 F 0.087 -0.090 19.0 R 0.70 -0.34 o 691 0.31 Yes Yes
2017BG32 O C H 2017-02-27.19829 1.000E-05 06:25:35.520 1.500E-01 0.500 F -0.209 -0.051 -07° 34' 26.10" 1.000E-01 0.500 F 0.048 0.302 20.7 R 0.70 -0.39 o 691 0.62 Yes Yes
2017BL30 O C H 2017-02-27.20088 1.000E-05 06:22:04.350 1.500E-01 0.500 F -0.033 -0.054 +06° 06' 52.70" 1.000E-01 0.500 F 0.087 0.621 18.9 R 0.70 -0.44 o 691 1.25 Yes Yes
2017BL30 O C H 2017-02-27.21319 1.000E-05 06:21:57.190 1.500E-01 0.500 F -0.033 0.337 +06° 06' 13.60" 1.000E-01 0.500 F 0.087 0.022 o 691 0.68 Yes No
2017DC38 O C K 2017-02-27.39585 1.000E-05 10:23:38.720 1.500E-01 0.500 F 0.270 -0.317 -00° 55' 17.20" 1.000E-01 0.500 F 0.039 0.249 o 691 0.81 Yes No
2017DC38 O C K 2017-02-27.41149 1.000E-05 10:23:39.350 1.500E-01 0.500 F 0.270 0.633 -00° 55' 21.60" 1.000E-01 0.500 F 0.039 -0.871 o 691 2.17 Yes No
2017DC38 O C K 2017-02-27.42712 1.000E-05 10:23:39.930 1.500E-01 0.500 F 0.270 0.562 -00° 55' 25.00" 1.000E-01 0.500 F 0.039 -1.002 o 691 2.31 Yes No
2000EM26 O C K 2017-02-27.44337 1.000E-05 13:46:57.670 1.500E-01 0.500 F 0.214 -1.699 -11° 27' 37.20" 1.000E-01 0.500 F 0.167 1.029 o 691 3.94 No No
2017DX34 O C H 2017-02-27.44720 1.000E-05 13:46:26.430 1.500E-01 0.500 F 0.198 -0.020 -02° 14' 12.50" 1.000E-01 0.500 F 0.072 -0.196 o 691 0.41 Yes No
2000EM26 O C K 2017-02-27.45199 1.000E-05 13:46:54.540 1.500E-01 0.500 F 0.214 -1.297 -11° 27' 30.50" 1.000E-01 0.500 F 0.167 -0.467 o 691 2.78 Yes No
2017DX34 O C H 2017-02-27.45581 1.000E-05 13:46:26.880 1.500E-01 0.500 F 0.198 -0.315 -02° 13' 58.10" 1.000E-01 0.500 F 0.072 -1.149 o 691 2.51 Yes No
2000EM26 O C K 2017-02-27.46062 1.000E-05 13:46:51.430 1.500E-01 0.500 F 0.214 -0.535 -11° 27' 21.90" 1.000E-01 0.500 F 0.167 -0.103 o 691 1.10 Yes No
2017DX34 O C H 2017-02-27.46444 1.000E-05 13:46:27.390 1.500E-01 0.500 F 0.198 0.266 -02° 13' 40.70" 1.000E-01 0.500 F 0.072 0.860 o 691 1.89 Yes No
2017CN1 O C H 2017-02-27.46770 1.000E-05 15:16:40.770 1.500E-01 0.500 F 0.205 -0.355 +08° 10' 30.60" 1.000E-01 0.500 F 0.081 0.079 19.2 R 0.70 -0.47 o 691 0.74 Yes Yes
2005ES70 O C K 2017-02-27.46957 1.000E-05 14:44:24.010 1.500E-01 0.500 F 0.091 0.690 +19° 04' 54.70" 1.000E-01 0.500 F 0.229 -0.450 o 691 1.69 Yes No
2017CN1 O C H 2017-02-27.47903 1.000E-05 15:16:45.010 1.500E-01 0.500 F 0.205 -0.297 +08° 10' 20.80" 1.000E-01 0.500 F 0.081 -0.130 20.2 R 0.70 0.53 o 691 0.66 Yes Yes
2005ES70 O C K 2017-02-27.48090 1.000E-05 14:44:19.710 1.500E-01 0.500 F 0.091 -1.600 +19° 04' 46.90" 1.000E-01 0.500 F 0.229 -1.123 20.2 R 0.70 -0.67 o 691 3.83 No Yes
2017CN1 O C H 2017-02-27.49035 1.000E-05 15:16:49.240 1.500E-01 0.500 F 0.205 -0.336 +08° 10' 10.80" 1.000E-01 0.500 F 0.081 -0.528 o 691 1.26 Yes No
2005ES70 O C K 2017-02-27.49230 1.000E-05 14:44:15.620 1.500E-01 0.500 F 0.091 -0.460 +19° 04' 43.10" 1.000E-01 0.500 F 0.229 2.365 o 691 4.71 No No
2017CH1 O C H 2017-03-01.51078 1.000E-05 17:57:34.110 1.500E-01 0.559 F -0.034 -0.188 +17° 08' 19.50" 1.000E-01 0.559 F 0.357 0.118 o 691 0.40 Yes No
2017CH1 O C H 2017-03-01.51305 1.000E-05 17:57:34.720 1.500E-01 0.559 F -0.034 0.202 +17° 08' 15.50" 1.000E-01 0.559 F 0.357 0.143 o 691 0.44 Yes No
2017CH1 O C H 2017-03-01.51530 1.000E-05 17:57:35.290 1.500E-01 0.559 F -0.034 0.093 +17° 08' 11.40" 1.000E-01 0.559 F 0.357 0.032 o 691 0.18 Yes No
2017CH1 O C H 2017-03-01.52049 1.000E-05 17:57:36.650 1.500E-01 0.559 F -0.034 0.496 +17° 08' 01.90" 1.000E-01 0.559 F 0.357 -0.262 o 691 1.01 Yes No
2017CH1 O C H 2017-03-01.52275 1.000E-05 17:57:37.210 1.500E-01 0.559 F -0.034 0.212 +17° 07' 58.20" 1.000E-01 0.559 F 0.357 0.048 o 691 0.39 Yes No
2016XH2 O C H 2017-03-02.18093 1.000E-05 04:54:46.680 1.500E-01 0.500 F -0.285 -0.367 +19° 20' 25.20" 1.000E-01 0.500 F 0.256 -0.085 20.8 R 0.70 0.24 o 691 0.75 Yes Yes
2016XH2 O C H 2017-03-02.18319 1.000E-05 04:54:47.060 1.500E-01 0.500 F -0.285 -0.092 +19° 20' 26.00" 1.000E-01 0.500 F 0.256 0.199 21.4 R 0.70 0.84 o 691 0.44 Yes Yes
2016XH2 O C H 2017-03-02.18546 1.000E-05 04:54:47.410 1.500E-01 0.500 F -0.285 -0.267 +19° 20' 26.30" 1.000E-01 0.500 F 0.256 -0.019 20.8 R 0.70 0.24 o 691 0.54 Yes Yes
2013WT67 O C 2017-03-02.19036 1.000E-05 05:04:40.820 1.500E-01 0.500 F -0.215 -0.071 -08° 41' 57.80" 1.000E-01 0.500 F 0.042 -0.019 16.6 V 0.70 -0.03 o 691 0.15 Yes Yes
2013WT67 O C 2017-03-02.19228 1.000E-05 05:04:41.710 1.500E-01 0.500 F -0.215 0.527 -08° 42' 07.80" 1.000E-01 0.500 F 0.042 -0.110 16.4 V 0.70 -0.23 o 691 1.08 Yes Yes
2013WT67 O C 2017-03-02.19418 1.000E-05 05:04:42.470 1.500E-01 0.500 F -0.215 -0.675 -08° 42' 16.70" 1.000E-01 0.500 F 0.042 0.794 16.5 V 0.70 -0.13 o 691 2.08 Yes Yes
2017DK109 O C H 2017-03-02.22603 1.000E-05 11:01:24.010 1.500E-01 0.500 F 0.180 -0.154 +05° 36' 32.90" 1.000E-01 0.500 F 0.009 0.523 o 691 1.16 Yes No
2017DK109 O C H 2017-03-02.22829 1.000E-05 11:01:23.770 1.500E-01 0.500 F 0.180 -0.125 +05° 36' 39.20" 1.000E-01 0.500 F 0.009 0.554 o 691 1.21 Yes No
2017DK109 O C H 2017-03-02.23054 1.000E-05 11:01:23.490 1.500E-01 0.500 F 0.180 -0.707 +05° 36' 45.00" 1.000E-01 0.500 F 0.009 0.114 o 691 1.51 Yes No
2017CF32 O C 2017-03-02.24203 1.000E-05 11:03:54.390 1.500E-01 0.500 F 0.192 -0.683 +21° 05' 52.50" 1.000E-01 0.500 F 0.215 -0.057 20.9 V 0.70 0.48 o 691 1.38 Yes Yes
2017CF32 O C 2017-03-02.24429 1.000E-05 11:03:54.340 1.500E-01 0.500 F 0.192 -0.640 +21° 05' 49.40" 1.000E-01 0.500 F 0.215 -0.128 20.8 V 0.70 0.38 o 691 1.31 Yes Yes
2017CF32 O C 2017-03-02.24655 1.000E-05 11:03:54.330 1.500E-01 0.500 F 0.192 -0.022 +21° 05' 46.20" 1.000E-01 0.500 F 0.215 -0.289 21.1 V 0.70 0.68 o 691 0.58 Yes Yes
2017DS35 O C 2017-03-02.29966 1.000E-05 13:00:06.170 1.500E-01 0.500 F 0.166 -0.043 +03° 27' 36.70" 1.000E-01 0.500 F 0.248 0.094 20.8 V 0.70 -0.10 o 691 0.21 Yes Yes
2017DS35 O C 2017-03-02.30330 1.000E-05 13:00:06.500 1.500E-01 0.500 F 0.166 -0.142 +03° 27' 40.70" 1.000E-01 0.500 F 0.248 -0.327 20.8 V 0.70 -0.10 o 691 0.71 Yes Yes
2017DS35 O C 2017-03-02.30695 1.000E-05 13:00:06.820 1.500E-01 0.500 F 0.166 -0.399 +03° 27' 45.30" 1.000E-01 0.500 F 0.248 -0.160 21.0 V 0.70 0.10 o 691 0.86 Yes Yes
2017DR36 O C 2017-03-02.33008 1.000E-05 11:33:01.580 1.500E-01 0.500 F 0.216 0.296 +23° 50' 14.40" 1.000E-01 0.500 F 0.257 -0.633 20.9 V 0.70 -0.06 o 691 1.41 Yes Yes
2017DR36 O C 2017-03-02.33303 1.000E-05 11:33:01.040 1.500E-01 0.500 F 0.216 -0.402 +23° 50' 15.70" 1.000E-01 0.500 F 0.257 0.051 20.8 V 0.70 -0.16 o 691 0.82 Yes Yes
2017DR36 O C 2017-03-02.33598 1.000E-05 11:33:00.510 1.500E-01 0.500 F 0.216 -0.962 +23° 50' 16.00" 1.000E-01 0.500 F 0.257 -0.263 20.7 V 0.70 -0.26 o 691 2.02 Yes Yes
2017EA O C H 2017-03-02.39829 1.000E-05 10:20:58.190 1.500E-01 0.612 F 0.208 11.031 +05° 53' 45.50" 1.000E-01 0.612 F 0.126 -2.235 o 691 17.91 No No
2017EA O C H 2017-03-02.39950 1.000E-05 10:21:02.450 1.500E-01 0.612 F 0.208 9.879 +05° 53' 28.30" 1.000E-01 0.612 F 0.126 -2.944 o 691 16.41 No No
2017EA O C H 2017-03-02.40072 1.000E-05 10:21:06.890 1.500E-01 0.612 F 0.208 9.888 +05° 53' 11.80" 1.000E-01 0.612 F 0.126 -2.579 o 691 16.27 No No
2016VV3 O C 2017-03-02.41141 1.000E-05 13:37:34.270 1.500E-01 0.500 F 0.135 -0.179 +01° 49' 04.90" 1.000E-01 0.500 F 0.155 0.057 20.7 V 0.70 -0.06 o 691 0.38 Yes Yes
2016VV3 O C 2017-03-02.41505 1.000E-05 13:37:34.070 1.500E-01 0.500 F 0.135 -0.303 +01° 49' 05.80" 1.000E-01 0.500 F 0.155 -0.125 20.7 V 0.70 -0.06 o 691 0.66 Yes Yes
2016VV3 O C 2017-03-02.41870 1.000E-05 13:37:33.890 1.500E-01 0.500 F 0.135 -0.118 +01° 49' 06.90" 1.000E-01 0.500 F 0.155 -0.110 20.6 V 0.70 -0.16 o 691 0.32 Yes Yes
2017EA O C H 2017-03-02.43085 1.000E-05 10:23:22.560 1.500E-01 0.612 F 0.161 13.092 +05° 44' 43.80" 1.000E-01 0.612 F 0.118 -2.756 o 691 21.41 No No
2017EA O C H 2017-03-02.43207 1.000E-05 10:23:29.390 1.500E-01 0.612 F 0.161 14.150 +05° 44' 18.30" 1.000E-01 0.612 F 0.118 -3.235 o 691 23.23 No No
2017EA O C H 2017-03-02.43328 1.000E-05 10:23:36.360 1.500E-01 0.612 F 0.161 16.346 +05° 43' 50.80" 1.000E-01 0.612 F 0.118 -5.506 o 691 27.61 No No
2017EH O C 2017-03-04.36841 1.000E-05 10:46:05.310 1.500E-01 0.500 F 0.222 0.203 -05° 44' 57.30" 1.000E-01 0.500 F 0.100 -0.035 20.5 V 0.70 -0.11 o 691 0.42 Yes Yes
2017EH O C 2017-03-04.37558 1.000E-05 10:46:04.060 1.500E-01 0.500 F 0.222 0.177 -05° 45' 01.90" 1.000E-01 0.500 F 0.100 0.031 20.7 V 0.70 0.09 o 691 0.36 Yes Yes
2017EH O C 2017-03-04.38277 1.000E-05 10:46:02.770 1.500E-01 0.500 F 0.222 -0.402 -05° 45' 06.80" 1.000E-01 0.500 F 0.100 -0.192 20.8 V 0.70 0.19 o 691 0.90 Yes Yes
2012RG3 O C H 2017-03-07.11170 1.000E-05 02:13:41.500 1.500E-01 0.500 F -0.152 1.487 +08° 06' 43.80" 1.000E-01 0.500 F 0.238 1.673 20.5 R 0.70 0.63 o 691 4.47 No Yes
2012RG3 O C H 2017-03-07.14417 1.000E-05 02:13:46.930 1.500E-01 0.500 F -0.152 0.446 +08° 07' 42.00" 1.000E-01 0.500 F 0.238 -0.645 19.7 R 0.70 -0.17 o 691 1.57 Yes Yes
2010HZ108 O C K 2017-03-07.16872 1.000E-05 09:37:00.480 1.500E-01 0.500 F 0.125 -0.007 -05° 37' 08.50" 1.000E-01 0.500 F -0.081 0.027 19.9 R 0.70 0.04 o 691 0.06 Yes Yes
2017CS O C K 2017-03-07.19745 1.000E-05 10:19:09.760 1.500E-01 0.500 F 0.225 0.021 -13° 27' 21.50" 1.000E-01 0.500 F -0.144 0.020 18.9 R 0.70 -0.28 o 691 0.06 Yes Yes
2010HZ108 O C K 2017-03-07.20309 1.000E-05 09:36:57.140 1.500E-01 0.500 F 0.125 -0.282 -05° 35' 03.70" 1.000E-01 0.500 F -0.081 0.563 19.6 R 0.70 -0.26 o 691 1.28 Yes Yes
2017CS O C K 2017-03-07.23184 1.000E-05 10:19:06.700 1.500E-01 0.500 F 0.225 -0.043 -13° 27' 31.90" 1.000E-01 0.500 F -0.144 0.131 18.9 R 0.70 -0.28 o 691 0.28 Yes Yes
2010HZ108 O C K 2017-03-07.23748 1.000E-05 09:36:53.820 1.500E-01 0.500 F 0.125 0.028 -05° 33' 00.00" 1.000E-01 0.500 F -0.081 -0.232 19.3 R 0.70 -0.56 o 691 0.47 Yes Yes
2017CS O C K 2017-03-07.26631 1.000E-05 10:19:03.610 1.500E-01 0.500 F 0.225 -0.160 -13° 27' 41.50" 1.000E-01 0.500 F -0.144 0.862 19.2 R 0.70 0.02 o 691 1.75 Yes Yes
2017ES2 O C K 2017-03-07.33275 1.000E-05 13:18:49.640 1.500E-01 0.500 F 0.002 0.262 -21° 37' 02.50" 1.000E-01 0.500 F -0.200 0.001 o 691 0.53 Yes No
2017ES2 O C 2017-03-07.33501 1.000E-05 13:18:49.630 1.500E-01 0.500 F 0.002 -0.094 -21° 37' 05.10" 1.000E-01 0.500 F -0.200 0.422 20.5 V 0.70 0.00 o 691 0.87 Yes Yes
2017ES2 O C K 2017-03-07.35420 1.000E-05 13:18:49.770 1.500E-01 0.500 F 0.002 0.068 -21° 37' 31.40" 1.000E-01 0.500 F -0.200 -0.251 20.6 R 0.70 0.50 o 691 0.52 Yes Yes
2017ES2 O C K 2017-03-07.37557 1.000E-05 13:18:49.920 1.500E-01 0.500 F 0.002 0.247 -21° 37' 59.40" 1.000E-01 0.500 F -0.200 0.230 o 691 0.68 Yes No
2016LE9 O C 2017-03-07.40070 1.000E-05 12:07:53.540 1.500E-01 0.500 F 0.137 -0.722 -18° 17' 36.70" 1.000E-01 0.500 F 0.057 0.414 20.7 V 0.70 -0.13 o 691 1.67 Yes Yes
2017CN32 O C H 2017-03-07.40339 1.000E-05 12:08:26.140 1.500E-01 0.500 F 0.235 -0.140 -07° 19' 11.80" 1.000E-01 0.500 F 0.037 0.284 20.0 R 0.70 0.38 o 691 0.64 Yes Yes

[1-200] [201-400] [401-600] [601-800] [801-1000] [1001-1200] [1201-1400] [1401-1600] [1601-1800] [1801-2000] [2001-2200] [2201-2400] [2401-2600] [2601-2800] [2801-3000] [3001-3200] [3201-3400] [3401-3600] [3601-3800] [3801-4000] [4001-4200] [4201-4400] [4401-4600] [4601-4800] [4801-5000] [5001-5200] [5201-5400] [5401-5600] [5601-5800] [5801-6000] [6001-6200] [6201-6400] [6401-6600] [6601-6800] [6801-7000] [7001-7200] [7201-7400] [7401-7600] [7601-7800] [7801-8000] [8001-8200] [8201-8400] [8401-8600] [8601-8800] [8801-9000] [9001-9200] [9201-9400] [9401-9600] [9601-9800] [9801-10000] [10001-10200] [10201-10400] [10401-10600] [10601-10800] [10801-11000] [11001-11200] [11201-11400] [11401-11600] [11601-11800] [11801-12000] [12001-12200] [12201-12400] [12401-12600] [12601-12800] [12801-13000] [13001-13200] [13201-13400] [13401-13600] [13601-13800] [13801-14000] [14001-14200] [14201-14400] [14401-14600] [14601-14800] [14801-15000] [15001-15200] [15201-15400] [15401-15600] [15601-15800] [15801-16000] [16001-16200] [16201-16400] [16401-16600] [16601-16800] [16801-17000] [17001-17200] [17201-17400] [17401-17600] [17601-17800] [17801-18000] [18001-18200] [18201-18400] [18401-18600] [18601-18800] [18801-19000] [19001-19200] [19201-19400] [19401-19600] [19601-19800] [19801-20000] [20001-20200] [20201-20400] [20401-20600] [20601-20800] [20801-21000] [21001-21200] [21201-21400] [21401-21600] [21601-21800] [21801-22000] [22001-22200] [22201-22400] [22401-22600] [22601-22800] [22801-23000] [23001-23200] [23201-23400] [23401-23600] [23601-23800] [23801-24000] [24001-24200] [24201-24400] [24401-24600] [24601-24800] [24801-25000] [25001-25200] [25201-25400] [25401-25600] [25601-25800] [25801-26000] [26001-26200] [26201-26400] [26401-26600] [26601-26800] [26801-27000] [27001-27200] [27201-27400] [27401-27600] [27601-27800] [27801-28000] [28001-28200] [28201-28400] [28401-28600] [28601-28800] [28801-29000] [29001-29200] [29201-29400] [29401-29600] [29601-29800] [29801-30000] [30001-30200] [30201-30400] [30401-30600] [30601-30800] [30801-31000] [31001-31200] [31201-31400] [31401-31600] [31601-31800] [31801-32000] [32001-32200] [32201-32400] [32401-32600] [32601-32800] [32801-33000] [33001-33200] [33201-33400] [33401-33600] [33601-33800] [33801-34000] [34001-34200] [34201-34400] [34401-34600] [34601-34800] [34801-35000] [35001-35200] [35201-35400] [35401-35600] [35601-35800] [35801-36000] [36001-36200] [36201-36400] [36401-36600] [36601-36800] [36801-37000] [37001-37200] [37201-37400] [37401-37600] [37601-37800] [37801-38000] [38001-38200] [38201-38400] [38401-38600] [38601-38800] [38801-39000] [39001-39200] [39201-39400] [39401-39600] [39601-39800] [39801-40000] [40001-40200] [40201-40400] [40401-40600] [40601-40800] [40801-41000] [41001-41200] [41201-41400] [41401-41600] [41601-41800] [41801-42000] [42001-42200] [42201-42400] [42401-42600] [42601-42800] [42801-43000] [43001-43200] [43201-43400] [43401-43600] [43601-43800] [43801-44000] [44001-44200] [44201-44400] [44401-44600] [44601-44800] [44801-45000] [45001-45200] [45201-45400] [45401-45600] [45601-45800] [45801-46000] [46001-46200] [46201-46400] [46401-46600] [46601-46800] [46801-47000] [47001-47200] [47201-47400] [47401-47600] [47601-47800] [47801-48000] [48001-48200] [48201-48400] [48401-48600] [48601-48800] [48801-49000] [49001-49200] [49201-49400] [49401-49600] [49601-49800] [49801-50000] [50001-50200] [50201-50388]